Time;durP1;ratioP1;P1;durP2;ratioP2;P2;SDS_P1;SDS_P2;PMS_P1;PMS_P2;Temp;Humidity;BMP_temperature;BMP_pressure;BME280_temperature;BME280_humidity;BME280_pressure;Samples;Min_cycle;Max_cycle;Signal;HPM_P1;HPM_P2
2023/05/28 04:02:38;;;;;;;3.43;2.03;;;8.60;97.30;;;;;;5070959;23;20509;-83
2023/05/28 04:05:04;;;;;;;4.83;2.10;;;8.60;97.30;;;;;;5016228;28;22628;-82
2023/05/28 04:07:29;;;;;;;1.20;1.10;;;8.60;97.30;;;;;;5019253;28;20193;-82
2023/05/28 04:09:55;;;;;;;3.17;2.03;;;8.70;97.30;;;;;;5018114;28;20835;-83
2023/05/28 04:12:20;;;;;;;17.03;3.00;;;8.70;97.30;;;;;;5000668;28;20201;-85
2023/05/28 04:14:46;;;;;;;2.53;2.33;;;8.80;97.30;;;;;;5009738;28;20183;-84
2023/05/28 04:17:12;;;;;;;4.10;2.70;;;8.80;97.30;;;;;;5008939;28;20693;-86
2023/05/28 04:19:38;;;;;;;1.33;1.23;;;8.80;97.30;;;;;;5013292;28;20181;-84
2023/05/28 04:22:05;;;;;;;2.30;2.07;;;8.80;97.30;;;;;;5004246;28;20447;-82
2023/05/28 04:24:30;;;;;;;2.70;2.37;;;8.90;97.30;;;;;;5011126;28;20427;-86
2023/05/28 04:26:56;;;;;;;1.87;1.77;;;8.90;97.30;;;;;;5001491;28;20480;-82
2023/05/28 04:29:24;;;;;;;1.73;1.63;;;9.00;97.30;;;;;;4996813;28;20207;-82
2023/05/28 04:31:50;;;;;;;3.97;3.13;;;9.00;97.30;;;;;;5018118;23;20489;-89
2023/05/28 04:34:17;;;;;;;5.03;2.20;;;9.10;97.30;;;;;;4984560;28;20782;-90
2023/05/28 04:36:43;;;;;;;3.47;3.17;;;9.10;97.30;;;;;;4985365;28;20576;-89
2023/05/28 04:39:08;;;;;;;3.17;2.47;;;9.20;97.30;;;;;;4995044;28;20577;-89
2023/05/28 04:41:34;;;;;;;5.23;1.73;;;9.20;97.30;;;;;;4983330;28;20446;-90
2023/05/28 04:43:59;;;;;;;5.57;3.67;;;9.30;97.30;;;;;;4984715;28;20429;-89
2023/05/28 04:46:29;;;;;;;2.03;1.90;;;9.30;97.30;;;;;;4989685;28;20186;-90
2023/05/28 04:48:55;;;;;;;1.77;1.77;;;9.40;97.30;;;;;;5010245;28;20272;-88
2023/05/28 04:51:21;;;;;;;2.30;1.87;;;9.50;97.30;;;;;;5022965;28;20481;-88
2023/05/28 04:53:47;;;;;;;1.50;1.40;;;9.50;97.30;;;;;;5005128;28;20201;-91
2023/05/28 04:56:14;;;;;;;3.13;2.93;;;9.60;97.30;;;;;;5010068;28;20450;-91
2023/05/28 04:58:39;;;;;;;2.43;2.00;;;9.60;97.30;;;;;;4989039;28;20420;-91
2023/05/28 05:01:07;;;;;;;5.60;1.63;;;9.70;97.30;;;;;;4995598;28;20455;-90
2023/05/28 05:03:33;;;;;;;3.07;2.87;;;9.80;97.30;;;;;;4998905;28;20282;-91
2023/05/28 05:05:58;;;;;;;1.97;1.87;;;9.80;97.30;;;;;;4992176;28;20607;-91
2023/05/28 05:08:24;;;;;;;3.90;1.90;;;9.90;97.30;;;;;;4989363;28;20202;-90
2023/05/28 05:10:51;;;;;;;5.33;3.07;;;9.90;97.30;;;;;;4982795;28;20287;-90
2023/05/28 05:13:19;;;;;;;1.23;1.13;;;;;;;;;;4995177;28;20178;-90
2023/05/28 05:15:44;;;;;;;2.67;1.90;;;10.00;97.30;;;;;;4990848;28;20450;-91
2023/05/28 05:18:10;;;;;;;3.00;2.17;;;10.10;97.30;;;;;;4990011;28;20429;-92
2023/05/28 05:20:36;;;;;;;3.00;2.43;;;10.20;97.30;;;;;;4987664;28;20212;-91
2023/05/28 05:23:01;;;;;;;2.83;2.63;;;10.30;97.30;;;;;;4985855;28;20417;-91
2023/05/28 05:25:27;;;;;;;1.77;1.30;;;10.40;97.30;;;;;;4996754;28;20190;-92
2023/05/28 05:27:52;;;;;;;6.33;3.10;;;10.50;97.30;;;;;;4988973;28;20256;-91
2023/05/28 05:30:18;;;;;;;3.23;2.83;;;10.70;97.30;;;;;;4986147;28;20178;-90
2023/05/28 05:32:43;;;;;;;10.67;3.67;;;10.80;97.30;;;;;;4995077;28;20655;-91
2023/05/28 05:35:09;;;;;;;4.90;3.63;;;10.90;97.30;;;;;;4992638;28;20182;-91
2023/05/28 05:37:35;;;;;;;8.60;1.97;;;11.00;97.30;;;;;;4992889;28;20188;-91
2023/05/28 05:40:01;;;;;;;3.63;3.43;;;11.10;97.30;;;;;;4992261;28;20232;-91
2023/05/28 05:42:26;;;;;;;4.27;2.50;;;11.20;97.30;;;;;;4987302;28;20509;-92
2023/05/28 05:44:52;;;;;;;4.50;2.10;;;11.30;97.30;;;;;;4992272;28;20177;-90
2023/05/28 05:47:18;;;;;;;1.80;1.80;;;11.40;97.30;;;;;;4989801;28;20186;-92
2023/05/28 05:49:43;;;;;;;3.63;2.43;;;11.40;97.30;;;;;;4994357;28;20475;-92
2023/05/28 05:52:09;;;;;;;1.93;1.40;;;11.50;97.30;;;;;;4975098;28;20218;-91
2023/05/28 05:54:34;;;;;;;5.13;2.03;;;11.60;97.30;;;;;;4991035;28;20178;-92
2023/05/28 05:57:02;;;;;;;2.03;1.90;;;11.70;97.30;;;;;;4990501;28;20272;-92
2023/05/28 05:59:28;;;;;;;3.23;1.67;;;11.70;97.30;;;;;;4980495;28;20178;-92
2023/05/28 06:01:53;;;;;;;3.77;2.27;;;11.80;97.30;;;;;;4989937;28;20808;-92
2023/05/28 06:04:19;;;;;;;4.13;2.60;;;12.00;97.30;;;;;;4980561;28;20210;-92
2023/05/28 06:06:44;;;;;;;2.50;2.40;;;12.10;97.30;;;;;;4986036;28;20225;-91
2023/05/28 06:09:10;;;;;;;6.23;4.27;;;12.20;97.30;;;;;;5000897;28;20202;-92
2023/05/28 06:11:36;;;;;;;10.37;2.40;;;12.30;97.30;;;;;;4984865;28;20256;-92
2023/05/28 06:14:01;;;;;;;3.90;2.43;;;12.40;97.30;;;;;;4977871;28;20269;-91
2023/05/28 06:16:28;;;;;;;2.93;2.47;;;12.50;97.30;;;;;;4980430;28;20352;-92
2023/05/28 06:18:53;;;;;;;3.93;2.60;;;12.60;97.30;;;;;;4982636;28;20182;-91
2023/05/28 06:21:19;;;;;;;6.50;4.50;;;12.70;97.30;;;;;;4984865;28;20779;-91
2023/05/28 06:23:44;;;;;;;6.13;2.27;;;12.70;97.30;;;;;;4987597;28;20196;-92
2023/05/28 06:26:10;;;;;;;2.80;2.60;;;12.90;97.30;;;;;;4991229;28;20185;-92
2023/05/28 06:28:35;;;;;;;7.57;4.87;;;13.00;97.30;;;;;;4992207;28;20258;-92
2023/05/28 06:31:02;;;;;;;2.20;2.00;;;13.10;97.30;;;;;;4992502;28;20257;-92
2023/05/28 06:33:28;;;;;;;6.70;4.17;;;13.10;97.30;;;;;;4988577;28;20694;-92
2023/05/28 06:35:53;;;;;;;2.90;2.17;;;13.30;97.30;;;;;;4986127;28;20733;-91
2023/05/28 06:38:19;;;;;;;2.93;2.00;;;13.40;97.30;;;;;;4988592;28;20229;-91
2023/05/28 06:40:45;;;;;;;2.47;1.77;;;13.50;97.30;;;;;;4988532;28;20212;-92
2023/05/28 06:43:10;;;;;;;2.20;2.00;;;13.60;97.30;;;;;;4984632;28;20270;-90
2023/05/28 06:45:36;;;;;;;3.33;2.50;;;13.70;97.30;;;;;;4990599;28;20186;-91
2023/05/28 06:48:03;;;;;;;3.70;2.17;;;13.80;97.30;;;;;;4987772;28;20264;-91
2023/05/28 06:50:28;;;;;;;8.67;4.47;;;13.90;97.30;;;;;;4982929;28;20268;-91
2023/05/28 06:52:53;;;;;;;6.53;3.93;;;13.90;97.30;;;;;;4994794;28;20973;-90
2023/05/28 06:55:19;;;;;;;2.70;2.50;;;14.10;97.30;;;;;;4987287;28;20201;-91
2023/05/28 06:57:45;;;;;;;23.13;3.10;;;14.20;97.30;;;;;;4991501;28;20185;-89
2023/05/28 07:00:16;;;;;;;2.87;1.83;;;14.30;97.30;;;;;;4990377;28;20178;-90
2023/05/28 07:02:45;;;;;;;2.03;1.90;;;14.40;97.30;;;;;;4985069;28;20188;-89
2023/05/28 07:05:12;;;;;;;2.43;2.23;;;14.50;97.20;;;;;;4981703;28;20891;-88
2023/05/28 07:07:37;;;;;;;4.93;3.40;;;14.60;96.80;;;;;;4990634;28;20758;-88
2023/05/28 07:10:03;;;;;;;13.53;4.20;;;14.70;96.70;;;;;;4984481;28;20517;-86
2023/05/28 07:12:29;;;;;;;1.37;1.30;;;14.80;96.40;;;;;;4984814;28;20453;-87
2023/05/28 07:14:55;;;;;;;4.77;3.07;;;14.80;96.50;;;;;;4985787;28;20429;-88
2023/05/28 07:17:21;;;;;;;2.53;2.33;;;14.90;96.50;;;;;;4986025;28;20647;-89
2023/05/28 07:19:47;;;;;;;29.83;4.73;;;15.10;96.40;;;;;;4993878;28;20189;-88
2023/05/28 07:22:12;;;;;;;30.93;3.90;;;15.20;95.70;;;;;;4986085;28;20301;-87
2023/05/28 07:24:38;;;;;;;4.73;3.00;;;15.20;95.80;;;;;;4993426;28;20974;-87
2023/05/28 07:27:03;;;;;;;6.23;2.83;;;15.30;95.00;;;;;;4987155;28;20228;-86
2023/05/28 07:29:29;;;;;;;4.70;1.93;;;15.40;95.00;;;;;;4990321;28;20220;-87
2023/05/28 07:31:55;;;;;;;4.20;2.23;;;15.50;95.00;;;;;;4996787;28;20707;-87
2023/05/28 07:34:20;;;;;;;3.53;2.13;;;15.60;95.30;;;;;;4988774;28;20175;-88
2023/05/28 07:36:46;;;;;;;4.83;2.93;;;15.70;95.00;;;;;;4993043;28;20178;-89
2023/05/28 07:39:11;;;;;;;3.23;3.00;;;15.80;94.80;;;;;;4977817;28;20190;-88
2023/05/28 07:41:37;;;;;;;7.23;2.53;;;15.90;94.60;;;;;;4984912;28;20665;-86
2023/05/28 07:44:03;;;;;;;1.93;1.83;;;16.00;92.90;;;;;;4984369;28;20604;-88
2023/05/28 07:46:29;;;;;;;3.53;2.13;;;16.00;93.50;;;;;;4986846;28;20316;-88
2023/05/28 07:48:54;;;;;;;4.63;2.80;;;16.20;93.50;;;;;;4998356;28;20819;-87
2023/05/28 07:51:20;;;;;;;3.90;2.07;;;16.30;93.50;;;;;;4982098;28;20191;-88
2023/05/28 07:53:46;;;;;;;3.93;2.53;;;16.40;91.80;;;;;;4987760;28;20229;-88
2023/05/28 07:56:11;;;;;;;3.40;2.47;;;16.50;91.70;;;;;;4989307;28;20182;-86
2023/05/28 07:58:37;;;;;;;3.37;1.97;;;16.60;91.30;;;;;;4982226;28;20331;-88
2023/05/28 08:01:08;;;;;;;1.20;1.10;;;16.70;89.50;;;;;;4983478;28;20254;-88
2023/05/28 08:03:34;;;;;;;4.80;2.23;;;16.90;90.50;;;;;;4983583;28;20663;-87
2023/05/28 08:06:00;;;;;;;3.83;2.13;;;17.00;88.80;;;;;;5007568;28;20424;-88
2023/05/28 08:08:26;;;;;;;4.10;2.60;;;17.10;89.20;;;;;;4992436;28;20225;-87
2023/05/28 08:10:52;;;;;;;2.00;1.87;;;17.20;89.40;;;;;;4998465;28;20447;-87
2023/05/28 08:13:17;;;;;;;2.30;1.83;;;17.30;88.70;;;;;;4989079;28;20452;-87
2023/05/28 08:15:43;;;;;;;7.87;3.13;;;17.50;89.20;;;;;;4989629;28;20244;-86
2023/05/28 08:18:08;;;;;;;2.80;1.70;;;17.60;86.50;;;;;;4983058;28;20189;-87
2023/05/28 08:20:35;;;;;;;1.87;1.73;;;17.70;86.40;;;;;;4985895;28;20194;-88
2023/05/28 08:23:02;;;;;;;1.63;1.53;;;17.80;85.20;;;;;;4977330;28;20183;-86
2023/05/28 08:25:28;;;;;;;2.53;2.30;;;17.90;85.40;;;;;;4980392;28;20409;-85
2023/05/28 08:27:53;;;;;;;1.73;1.53;;;18.00;85.40;;;;;;4990793;28;20509;-87
2023/05/28 08:30:19;;;;;;;1.27;1.17;;;18.10;85.00;;;;;;4985112;28;20181;-85
2023/05/28 08:32:45;;;;;;;2.53;1.67;;;18.10;83.90;;;;;;4993635;28;20272;-84
2023/05/28 08:35:10;;;;;;;2.83;1.80;;;18.20;84.40;;;;;;4979543;28;20552;-85
2023/05/28 08:37:36;;;;;;;1.90;1.73;;;18.30;84.60;;;;;;4979904;28;20245;-85
2023/05/28 08:40:04;;;;;;;6.93;2.53;;;18.40;84.50;;;;;;4990712;28;20178;-86
2023/05/28 08:42:30;;;;;;;2.57;2.40;;;18.50;83.50;;;;;;4980459;28;20342;-86
2023/05/28 08:44:56;;;;;;;7.37;2.13;;;18.60;81.80;;;;;;4987123;28;20482;-88
2023/05/28 08:47:22;;;;;;;2.40;1.67;;;18.60;81.30;;;;;;4984693;28;20838;-86
2023/05/28 08:49:54;;;;;;;1.77;1.73;;;18.70;81.90;;;;;;4978940;28;20213;-85
2023/05/28 08:52:22;;;;;;;5.53;2.90;;;18.70;80.80;;;;;;4981091;28;20198;-88
2023/05/28 08:54:48;;;;;;;1.43;1.33;;;18.80;80.60;;;;;;4990640;28;20597;-89
2023/05/28 08:57:15;;;;;;;1.70;1.70;;;18.80;80.50;;;;;;4985379;28;20406;-89
2023/05/28 08:59:40;;;;;;;1.20;1.10;;;18.90;79.50;;;;;;4985765;28;20424;-88
2023/05/28 09:02:08;;;;;;;1.47;1.17;;;18.90;80.60;;;;;;5011054;28;20848;-88
2023/05/28 09:04:34;;;;;;;6.73;1.97;;;19.00;80.10;;;;;;4984294;28;20228;-88
2023/05/28 09:06:59;;;;;;;3.50;1.90;;;19.10;78.30;;;;;;4988221;28;20841;-88
2023/05/28 09:09:26;;;;;;;2.70;2.03;;;19.30;77.50;;;;;;5006282;28;20202;-90
2023/05/28 09:11:58;;;;;;;6.53;2.00;;;19.40;77.60;;;;;;5007302;28;20190;-89
2023/05/28 09:14:25;;;;;;;5.47;2.27;;;19.40;76.60;;;;;;5016413;28;20439;-89
2023/05/28 09:16:50;;;;;;;1.90;1.70;;;19.40;77.20;;;;;;4989892;28;20498;-89
2023/05/28 09:19:16;;;;;;;3.10;2.00;;;19.50;77.20;;;;;;4987465;28;20508;-89
2023/05/28 09:21:57;;;;;;;3.20;1.63;;;19.50;76.20;;;;;;4983740;28;20206;-89
2023/05/28 09:24:26;;;;;;;3.90;2.50;;;19.60;75.90;;;;;;4978452;28;20190;-88
2023/05/28 09:27:00;;;;;;;2.70;1.97;;;19.70;76.50;;;;;;4977697;28;20903;-89
2023/05/28 09:29:26;;;;;;;2.93;2.23;;;19.70;75.60;;;;;;4996556;28;20844;-89
2023/05/28 09:31:57;;;;;;;2.20;1.67;;;19.70;75.50;;;;;;4978030;28;20460;-89
2023/05/28 09:34:32;;;;;;;2.43;1.90;;;19.70;75.50;;;;;;4987006;28;20425;-89
2023/05/28 09:37:02;;;;;;;2.93;1.57;;;19.70;75.10;;;;;;4987927;28;20425;-88
2023/05/28 09:39:28;;;;;;;4.10;1.70;;;19.80;75.50;;;;;;4981586;28;20432;-86
2023/05/28 09:42:03;;;;;;;3.27;1.73;;;19.80;74.90;;;;;;4979400;28;20444;-89
2023/05/28 09:44:33;;;;;;;1.17;1.10;;;20.00;76.10;;;;;;4987276;28;20192;-89
2023/05/28 09:46:59;;;;;;;1.63;1.60;;;20.10;75.30;;;;;;4975966;28;20432;-88
2023/05/28 09:49:28;;;;;;;2.20;1.73;;;20.20;76.30;;;;;;4986015;28;20457;-88
2023/05/28 09:51:57;;;;;;;1.70;1.60;;;20.40;74.50;;;;;;4990797;28;20667;-89
2023/05/28 09:54:31;;;;;;;1.63;1.43;;;20.40;74.80;;;;;;4986041;28;20463;-88
2023/05/28 09:56:58;;;;;;;1.60;1.30;;;20.50;75.90;;;;;;4978683;28;20838;-88
2023/05/28 09:59:26;;;;;;;4.13;2.33;;;20.70;75.40;;;;;;4978501;28;20867;-89
2023/05/28 10:01:59;;;;;;;4.33;2.40;;;20.80;73.70;;;;;;4987903;28;20550;-85
2023/05/28 10:04:36;;;;;;;5.23;1.90;;;20.80;74.20;;;;;;4986275;28;20420;-86
2023/05/28 10:07:05;;;;;;;3.33;2.30;;;20.80;73.50;;;;;;5003773;28;20444;-86
2023/05/28 10:09:35;;;;;;;1.67;1.47;;;20.90;74.30;;;;;;4997437;28;20468;-88
2023/05/28 10:12:21;;;;;;;3.97;1.63;;;20.90;74.10;;;;;;4997220;28;20441;-86
2023/05/28 10:14:48;;;;;;;1.53;1.53;;;21.10;74.40;;;;;;4994402;28;20490;-88
2023/05/28 10:17:14;;;;;;;1.87;1.60;;;21.20;73.10;;;;;;4981372;28;20923;-86
2023/05/28 10:19:40;;;;;;;1.77;1.60;;;21.30;73.40;;;;;;4994481;28;20425;-86
2023/05/28 10:22:07;;;;;;;2.87;2.03;;;21.30;72.20;;;;;;5000471;28;20432;-86
2023/05/28 10:24:36;;;;;;;2.37;1.67;;;21.30;72.90;;;;;;4994142;28;20424;-86
2023/05/28 10:27:06;;;;;;;2.23;2.07;;;21.30;72.10;;;;;;4992447;28;20421;-85
2023/05/28 10:29:46;;;;;;;1.77;1.67;;;21.30;71.50;;;;;;4988903;28;20482;-88
2023/05/28 10:32:17;;;;;;;1.70;1.47;;;21.20;71.70;;;;;;4992498;28;20555;-86
2023/05/28 10:34:43;;;;;;;2.73;1.90;;;21.30;71.30;;;;;;4993742;28;20469;-64
2023/05/28 10:37:10;;;;;;;2.30;1.50;;;21.30;72.00;;;;;;4958871;28;21152;-63
2023/05/28 10:39:45;;;;;;;2.30;1.83;;;21.30;71.50;;;;;;4983923;28;20446;-64
2023/05/28 10:42:20;;;;;;;3.00;2.10;;;21.50;72.20;;;;;;4980425;28;20530;-63
2023/05/28 10:45:06;;;;;;;4.60;1.97;;;21.50;71.30;;;;;;4979370;28;20435;-65
2023/05/28 10:47:55;;;;;;;3.73;2.20;;;21.60;71.50;;;;;;4975821;28;20457;-64
2023/05/28 10:50:21;;;;;;;1.70;1.17;;;21.60;70.10;;;;;;4966345;28;20468;-64
2023/05/28 10:53:08;;;;;;;4.23;2.60;;;21.60;70.80;;;;;;4972794;28;20920;-63
2023/05/28 10:55:50;;;;;;;2.67;1.37;;;21.60;70.00;;;;;;4964254;28;20428;-65
2023/05/28 10:58:36;;;;;;;1.17;1.10;;;21.70;70.80;;;;;;4982565;28;20528;-60
2023/05/28 11:01:05;;;;;;;6.93;2.27;;;21.80;72.10;;;;;;4978865;28;20474;-64
2023/05/28 11:03:54;;;;;;;3.80;1.40;;;21.90;72.40;;;;;;4974367;28;20520;-64
2023/05/28 11:06:20;;;;;;;6.33;2.10;;;21.90;70.20;;;;;;4976753;28;20492;-65
2023/05/28 11:08:47;;;;;;;1.40;1.40;;;21.90;71.10;;;;;;4977615;28;20536;-64
2023/05/28 11:11:14;;;;;;;2.00;1.43;;;21.90;71.00;;;;;;4977159;28;20198;-64
2023/05/28 11:13:47;;;;;;;22.40;2.20;;;22.00;71.00;;;;;;4972466;28;20794;-64
2023/05/28 11:16:15;;;;;;;1.90;1.83;;;22.10;71.50;;;;;;4966515;28;20429;-65
2023/05/28 11:19:00;;;;;;;5.33;2.03;;;22.20;71.80;;;;;;4973637;28;20413;-65
2023/05/28 11:21:25;;;;;;;1.77;1.10;;;22.30;70.90;;;;;;4966623;28;20544;-65
2023/05/28 11:24:05;;;;;;;2.63;2.03;;;22.40;72.70;;;;;;4976361;28;20425;-65
2023/05/28 11:26:32;;;;;;;5.60;1.90;;;22.50;72.70;;;;;;4976187;28;20237;-65
2023/05/28 11:28:58;;;;;;;4.23;1.67;;;22.70;72.80;;;;;;4970200;28;20464;-65
2023/05/28 11:31:23;;;;;;;2.07;1.70;;;22.80;70.90;;;;;;4966368;28;20441;-65
2023/05/28 11:33:49;;;;;;;3.80;2.33;;;22.80;71.50;;;;;;4969153;28;20740;-65
2023/05/28 11:36:15;;;;;;;1.53;1.20;;;22.90;71.70;;;;;;4965379;28;20667;-65
2023/05/28 11:38:41;;;;;;;1.97;1.87;;;22.90;72.10;;;;;;4964585;28;20661;-65
2023/05/28 11:41:06;;;;;;;1.90;1.70;;;23.10;71.30;;;;;;4971152;28;20740;-65
2023/05/28 11:43:32;;;;;;;6.73;2.30;;;23.20;70.00;;;;;;4969896;28;20217;-64
2023/05/28 11:45:59;;;;;;;1.50;1.43;;;23.20;68.50;;;;;;4960574;28;20542;-65
2023/05/28 11:48:27;;;;;;;1.50;1.43;;;23.20;69.00;;;;;;4970786;28;20289;-66
2023/05/28 11:50:58;;;;;;;3.47;2.13;;;23.20;66.90;;;;;;4966346;28;20507;-67
2023/05/28 11:53:23;;;;;;;1.60;1.50;;;23.10;68.90;;;;;;4969265;28;20428;-65
2023/05/28 11:55:49;;;;;;;4.07;1.87;;;23.20;68.70;;;;;;4987165;28;20442;-66
2023/05/28 11:58:14;;;;;;;1.53;1.50;;;23.10;68.00;;;;;;4965630;28;20547;-66
2023/05/28 12:00:40;;;;;;;2.27;1.63;;;23.20;68.30;;;;;;4966329;28;20501;-67
2023/05/28 12:03:05;;;;;;;3.03;2.10;;;23.30;68.40;;;;;;4964227;28;20642;-66
2023/05/28 12:05:38;;;;;;;7.90;1.90;;;23.40;68.00;;;;;;4968936;28;20191;-66
2023/05/28 12:08:04;;;;;;;1.87;1.83;;;23.50;69.00;;;;;;4968088;28;20555;-66
2023/05/28 12:10:32;;;;;;;2.63;1.30;;;23.60;68.00;;;;;;4961820;28;21008;-67
2023/05/28 12:12:57;;;;;;;1.57;1.47;;;23.60;67.30;;;;;;4968312;28;20700;-66
2023/05/28 12:15:24;;;;;;;3.77;1.67;;;23.50;67.00;;;;;;4965818;28;20537;-67
2023/05/28 12:17:58;;;;;;;4.27;1.80;;;23.50;65.60;;;;;;4967557;28;20204;-67
2023/05/28 12:20:24;;;;;;;1.17;1.07;;;23.40;66.10;;;;;;4970421;28;20418;-67
2023/05/28 12:23:07;;;;;;;4.17;2.20;;;23.40;66.40;;;;;;4964976;28;20691;-67
2023/05/28 12:25:50;;;;;;;2.80;1.90;;;23.50;66.40;;;;;;4967481;28;20186;-67
2023/05/28 12:28:20;;;;;;;2.13;1.50;;;23.60;67.90;;;;;;4966503;28;20422;-67
2023/05/28 12:30:50;;;;;;;3.07;1.80;;;23.70;67.70;;;;;;4955176;28;20446;-66
2023/05/28 12:33:16;;;;;;;2.73;1.90;;;23.80;66.80;;;;;;4971633;28;20956;-66
2023/05/28 12:35:42;;;;;;;5.23;2.10;;;23.90;65.60;;;;;;4967278;28;20502;-66
2023/05/28 12:38:08;;;;;;;1.97;1.40;;;24.00;65.60;;;;;;4966556;28;21072;-66
2023/05/28 12:40:33;;;;;;;1.77;1.67;;;24.00;65.30;;;;;;4976834;28;20217;-66
2023/05/28 12:42:59;;;;;;;5.10;2.30;;;24.10;67.00;;;;;;4973420;28;20993;-66
2023/05/28 12:45:25;;;;;;;1.60;1.50;;;24.40;65.90;;;;;;4969882;28;20305;-66
2023/05/28 12:47:50;;;;;;;2.50;2.17;;;24.60;64.70;;;;;;4970217;28;20182;-66
2023/05/28 12:50:16;;;;;;;3.00;1.70;;;24.60;65.10;;;;;;4976810;28;20270;-66
2023/05/28 12:52:42;;;;;;;2.00;1.70;;;24.60;65.10;;;;;;4968707;28;20174;-67
2023/05/28 12:55:08;;;;;;;8.90;1.30;;;24.60;64.70;;;;;;4969598;28;20193;-66
2023/05/28 12:57:35;;;;;;;2.73;2.13;;;24.60;65.00;;;;;;4972534;28;20430;-66
2023/05/28 13:00:00;;;;;;;3.20;2.27;;;24.70;64.90;;;;;;4973536;28;20926;-67
2023/05/28 13:02:26;;;;;;;1.20;1.20;;;24.90;66.20;;;;;;4975657;28;20475;-67
2023/05/28 13:04:51;;;;;;;2.50;2.17;;;25.00;65.70;;;;;;4974306;28;20183;-67
2023/05/28 13:07:16;;;;;;;5.20;1.70;;;25.20;66.60;;;;;;4969318;28;20360;-67
2023/05/28 13:09:42;;;;;;;4.93;1.20;;;25.30;66.10;;;;;;4970336;28;20693;-66
2023/05/28 13:12:08;;;;;;;1.73;1.50;;;25.30;65.60;;;;;;4977754;28;20206;-66
2023/05/28 13:14:33;;;;;;;1.20;1.00;;;25.40;66.20;;;;;;4969678;28;20187;-66
2023/05/28 13:16:59;;;;;;;4.60;2.57;;;25.50;64.90;;;;;;4968041;28;20646;-66
2023/05/28 13:19:25;;;;;;;1.40;1.30;;;25.50;65.60;;;;;;4982043;28;20213;-66
2023/05/28 13:21:51;;;;;;;3.27;2.30;;;25.40;64.20;;;;;;4969587;28;20484;-67
2023/05/28 13:24:16;;;;;;;2.40;1.60;;;25.40;64.60;;;;;;4970055;28;20489;-68
2023/05/28 13:26:42;;;;;;;2.60;1.87;;;25.50;66.20;;;;;;4973617;28;20190;-67
2023/05/28 13:29:08;;;;;;;2.45;1.40;;;25.70;65.50;;;;;;4970194;28;20202;-66
2023/05/28 13:31:34;;;;;;;5.10;1.83;;;25.80;63.60;;;;;;4969149;28;20998;-67
2023/05/28 13:34:00;;;;;;;7.67;1.83;;;25.70;63.40;;;;;;4970291;28;20222;-66
2023/05/28 13:36:27;;;;;;;1.37;1.30;;;25.70;64.30;;;;;;4967774;28;20508;-66
2023/05/28 13:38:54;;;;;;;1.73;1.30;;;25.70;64.90;;;;;;4968907;28;20198;-66
2023/05/28 13:41:20;;;;;;;1.20;1.10;;;25.80;64.30;;;;;;4969656;28;20456;-67
2023/05/28 13:43:46;;;;;;;1.37;1.27;;;25.80;63.00;;;;;;4967895;28;20932;-66
2023/05/28 13:46:12;;;;;;;8.70;1.20;;;25.80;63.70;;;;;;4971653;28;20480;-66
2023/05/28 13:48:37;;;;;;;1.80;1.73;;;25.90;62.60;;;;;;4971541;28;20489;-66
2023/05/28 13:51:05;;;;;;;1.43;1.20;;;25.90;63.10;;;;;;4972077;28;20235;-67
2023/05/28 13:53:31;;;;;;;2.40;1.67;;;25.90;63.50;;;;;;4970934;28;20178;-66
2023/05/28 13:55:57;;;;;;;2.00;1.57;;;25.90;62.80;;;;;;4972646;28;20405;-66
2023/05/28 13:58:24;;;;;;;2.70;1.40;;;25.90;63.00;;;;;;4970884;28;20484;-66
2023/05/28 14:00:50;;;;;;;2.40;1.33;;;25.90;62.50;;;;;;4969431;28;20198;-66
2023/05/28 14:03:16;;;;;;;1.50;1.40;;;25.90;62.10;;;;;;4966896;28;20485;-66
2023/05/28 14:05:44;;;;;;;2.37;1.63;;;25.90;62.60;;;;;;4969589;28;20237;-67
2023/05/28 14:08:09;;;;;;;5.93;1.57;;;25.90;62.00;;;;;;4968106;28;20524;-68
2023/05/28 14:10:35;;;;;;;1.77;1.67;;;25.90;63.70;;;;;;4962907;28;20580;-68
2023/05/28 14:13:01;;;;;;;4.50;1.97;;;26.00;63.40;;;;;;4967803;28;20489;-68
2023/05/28 14:15:26;;;;;;;2.73;1.77;;;26.20;62.20;;;;;;4969109;28;20206;-66
2023/05/28 14:17:52;;;;;;;2.70;2.30;;;26.20;61.30;;;;;;4969412;28;20186;-69
2023/05/28 14:20:17;;;;;;;2.40;2.03;;;26.20;61.00;;;;;;4963859;28;20665;-68
2023/05/28 14:22:44;;;;;;;4.87;1.77;;;26.20;61.10;;;;;;4970158;28;20183;-68
2023/05/28 14:25:10;;;;;;;3.80;1.80;;;26.30;62.90;;;;;;4966812;28;20186;-68
2023/05/28 14:27:37;;;;;;;1.70;1.60;;;26.50;59.60;;;;;;4965749;28;20714;-69
2023/05/28 14:30:02;;;;;;;1.67;1.60;;;26.60;61.80;;;;;;4965776;28;20466;-67
2023/05/28 14:32:28;;;;;;;5.43;2.63;;;26.70;61.50;;;;;;4969858;28;20429;-67
2023/05/28 14:34:53;;;;;;;8.23;1.50;;;26.70;60.80;;;;;;4967468;28;20620;-67
2023/05/28 14:37:19;;;;;;;2.60;2.23;;;26.70;62.10;;;;;;4971474;28;20178;-67
2023/05/28 14:39:44;;;;;;;2.50;1.50;;;26.70;61.20;;;;;;4970656;28;20275;-67
2023/05/28 14:42:10;;;;;;;4.73;1.50;;;26.70;61.30;;;;;;4967453;28;20302;-68
2023/05/28 14:44:36;;;;;;;1.70;1.20;;;26.80;61.10;;;;;;4969965;28;20626;-67
2023/05/28 14:47:03;;;;;;;8.83;1.90;;;26.70;60.30;;;;;;4969878;28;20567;-68
2023/05/28 14:49:29;;;;;;;1.43;1.10;;;26.70;59.90;;;;;;4973295;28;20218;-67
2023/05/28 14:51:55;;;;;;;7.40;2.00;;;26.70;59.80;;;;;;4967580;28;20488;-67
2023/05/28 14:54:22;;;;;;;1.77;1.37;;;26.70;60.20;;;;;;4969823;28;20443;-67
2023/05/28 14:56:47;;;;;;;1.57;1.40;;;26.80;61.20;;;;;;4968246;28;20461;-66
2023/05/28 14:59:13;;;;;;;1.97;1.87;;;26.90;60.10;;;;;;4973441;28;20422;-66
2023/05/28 15:01:39;;;;;;;4.90;1.63;;;26.90;59.20;;;;;;4967449;28;20209;-66
2023/05/28 15:04:05;;;;;;;16.63;2.10;;;27.00;60.20;;;;;;4971281;28;20642;-66
2023/05/28 15:06:32;;;;;;;1.30;1.20;;;27.10;60.00;;;;;;4964195;28;20189;-66
2023/05/28 15:08:58;;;;;;;1.20;1.10;;;27.20;59.80;;;;;;4967579;28;20466;-67
2023/05/28 15:11:25;;;;;;;1.47;1.10;;;27.30;59.00;;;;;;4972892;28;20512;-67
2023/05/28 15:13:51;;;;;;;1.77;1.20;;;27.30;58.90;;;;;;4968541;28;20916;-67
2023/05/28 15:16:17;;;;;;;1.77;1.20;;;27.40;59.80;;;;;;4972007;28;20414;-69
2023/05/28 15:18:43;;;;;;;1.53;1.20;;;27.40;58.90;;;;;;4971203;28;20455;-68
2023/05/28 15:21:08;;;;;;;5.40;1.97;;;27.30;58.00;;;;;;4970237;28;20742;-67
2023/05/28 15:23:34;;;;;;;2.63;1.70;;;27.20;59.20;;;;;;4973334;28;20194;-68
2023/05/28 15:25:59;;;;;;;1.40;1.30;;;27.20;59.60;;;;;;4974717;28;20254;-67
2023/05/28 15:28:25;;;;;;;3.40;1.33;;;27.30;58.40;;;;;;4988973;28;20202;-67
2023/05/28 15:30:51;;;;;;;1.77;0.93;;;27.30;58.80;;;;;;4975642;28;20232;-67
2023/05/28 15:33:16;;;;;;;3.20;1.87;;;27.30;58.50;;;;;;4972365;28;20719;-68
2023/05/28 15:35:42;;;;;;;4.70;1.60;;;27.40;58.10;;;;;;4971253;28;20210;-67
2023/05/28 15:38:08;;;;;;;1.73;1.70;;;27.40;58.40;;;;;;4975065;28;20595;-67
2023/05/28 15:40:34;;;;;;;2.20;1.67;;;27.60;58.70;;;;;;4975326;28;20269;-67
2023/05/28 15:43:04;;;;;;;1.87;1.40;;;27.70;58.40;;;;;;4971966;28;20622;-68
2023/05/28 15:45:30;;;;;;;2.83;1.57;;;27.80;59.40;;;;;;4971777;28;20186;-68
2023/05/28 15:47:56;;;;;;;3.43;1.97;;;27.70;58.00;;;;;;4975706;28;20413;-61
2023/05/28 15:50:21;;;;;;;1.30;1.00;;;27.70;57.40;;;;;;4973462;28;20206;-62
2023/05/28 15:52:48;;;;;;;1.10;1.00;;;27.60;57.00;;;;;;4974570;28;20233;-64
2023/05/28 15:55:14;;;;;;;4.83;1.57;;;27.40;58.30;;;;;;4976901;28;20173;-61
2023/05/28 15:57:39;;;;;;;2.50;2.30;;;27.30;57.90;;;;;;4978122;28;20413;-62
2023/05/28 16:00:06;;;;;;;1.50;1.20;;;27.30;57.80;;;;;;4978779;28;20424;-62
2023/05/28 16:02:36;;;;;;;2.17;2.00;;;27.20;57.50;;;;;;4965784;28;20190;-61
2023/05/28 16:05:02;;;;;;;1.63;1.20;;;27.20;57.30;;;;;;4966432;28;20422;-62
2023/05/28 16:07:27;;;;;;;2.50;1.87;;;27.20;57.70;;;;;;4967534;28;20976;-62
2023/05/28 16:09:53;;;;;;;4.30;1.77;;;27.20;57.50;;;;;;4968564;28;20302;-60
2023/05/28 16:12:19;;;;;;;2.83;1.80;;;27.20;57.40;;;;;;4969683;28;20213;-60
2023/05/28 16:14:47;;;;;;;4.43;1.63;;;27.20;57.40;;;;;;4968482;28;20755;-61
2023/05/28 16:17:13;;;;;;;2.90;1.90;;;27.20;57.90;;;;;;4969859;28;20469;-60
2023/05/28 16:19:39;;;;;;;3.20;1.40;;;27.10;57.90;;;;;;4975190;28;20453;-61
2023/05/28 16:22:05;;;;;;;3.33;1.57;;;27.10;57.80;;;;;;4970922;28;20210;-61
2023/05/28 16:24:30;;;;;;;2.30;1.60;;;27.00;57.90;;;;;;4967728;28;20956;-61
2023/05/28 16:26:56;;;;;;;1.63;1.47;;;26.90;58.10;;;;;;4970929;28;20476;-61
2023/05/28 16:29:23;;;;;;;2.47;1.57;;;26.90;57.90;;;;;;4968896;28;20649;-60
2023/05/28 16:31:49;;;;;;;2.60;2.20;;;26.90;57.60;;;;;;4970552;28;20670;-61
2023/05/28 16:34:15;;;;;;;1.33;1.20;;;26.80;57.60;;;;;;4972291;28;20706;-61
2023/05/28 16:36:41;;;;;;;1.77;1.60;;;26.80;57.60;;;;;;4969894;28;20214;-61
2023/05/28 16:39:06;;;;;;;2.77;1.67;;;26.70;57.80;;;;;;4985494;28;20457;-61
2023/05/28 16:41:32;;;;;;;1.87;1.70;;;26.60;58.40;;;;;;4966282;28;20257;-61
2023/05/28 16:43:58;;;;;;;2.70;2.30;;;26.50;59.20;;;;;;4971416;28;20273;-62
2023/05/28 16:46:25;;;;;;;7.33;1.50;;;26.30;58.80;;;;;;4971383;28;20224;-61
2023/05/28 16:48:53;;;;;;;3.63;1.30;;;26.10;58.10;;;;;;4968375;28;20198;-61